Time;durP1;ratioP1;P1;durP2;ratioP2;P2;SDS_P1;SDS_P2;PMS_P1;PMS_P2;Temp;Humidity;BMP_temperature;BMP_pressure;BME280_temperature;BME280_humidity;BME280_pressure;Samples;Min_cycle;Max_cycle;Signal;HPM_P1;HPM_P2
2021/07/29 00:00:26;;;;;;;8.43;3.10;;;;;;;15.03;100.00;95820.53;5052128;28;20929;-77
2021/07/29 00:02:52;;;;;;;3.20;2.67;;;;;;;15.10;100.00;95814.72;5052449;28;20530;-77
2021/07/29 00:05:19;;;;;;;3.67;2.80;;;;;;;15.15;100.00;95815.16;5050626;28;20421;-77
2021/07/29 00:07:44;;;;;;;4.10;2.72;;;;;;;15.22;100.00;95818.13;5052071;28;20886;-77
2021/07/29 00:10:10;;;;;;;3.58;2.75;;;;;;;15.29;100.00;95814.06;5050695;28;20478;-77
2021/07/29 00:12:36;;;;;;;3.92;2.90;;;;;;;15.25;100.00;95813.47;5050661;28;20425;-77
2021/07/29 00:15:02;;;;;;;4.90;2.90;;;;;;;15.33;100.00;95810.25;5051948;28;20463;-77
2021/07/29 00:20:13;;;;;;;4.05;2.85;;;;;;;15.19;100.00;95806.13;5010783;28;20918;-77
2021/07/29 00:22:40;;;;;;;4.18;2.83;;;;;;;15.20;100.00;95797.38;5051728;28;20520;-77
2021/07/29 00:25:11;;;;;;;3.38;2.92;;;;;;;15.17;100.00;95800.22;5051996;28;20433;-77
2021/07/29 00:27:37;;;;;;;7.97;2.63;;;;;;;15.16;100.00;95803.75;5050407;28;20772;-77
2021/07/29 00:30:03;;;;;;;3.47;2.43;;;;;;;15.08;100.00;95808.78;5051902;28;20485;-77
2021/07/29 00:32:29;;;;;;;2.53;2.30;;;;;;;15.10;100.00;95799.06;5051872;28;20519;-77
2021/07/29 00:34:54;;;;;;;3.53;2.40;;;;;;;15.10;100.00;95806.88;5051820;28;20516;-77
2021/07/29 00:37:19;;;;;;;18.23;2.77;;;;;;;15.16;98.95;95805.56;5051462;28;20441;-77
2021/07/29 00:39:46;;;;;;;5.53;2.30;;;;;;;15.13;95.84;95795.34;5051482;28;20913;-77
2021/07/29 00:42:12;;;;;;;10.93;2.83;;;;;;;14.96;95.85;95799.34;5050450;28;20413;-77
2021/07/29 00:44:38;;;;;;;3.67;2.67;;;;;;;14.59;100.00;95799.63;5050783;28;20790;-77
2021/07/29 00:47:04;;;;;;;3.85;2.63;;;;;;;14.47;100.00;95790.97;5051236;28;20413;-77
2021/07/29 00:49:30;;;;;;;4.45;3.20;;;;;;;14.50;100.00;95792.53;5050192;28;20794;-77
2021/07/29 00:51:55;;;;;;;4.00;2.58;;;;;;;14.50;100.00;95789.94;5051147;28;20417;-77
2021/07/29 00:54:27;;;;;;;4.65;2.67;;;;;;;14.54;100.00;95791.34;5053024;28;20483;-77
2021/07/29 00:56:55;;;;;;;5.70;2.95;;;;;;;14.55;100.00;95790.41;5052705;28;20495;-77
2021/07/29 00:59:21;;;;;;;3.80;2.83;;;;;;;14.59;100.00;95791.81;5054190;28;20514;-77
2021/07/29 01:01:46;;;;;;;3.87;2.70;;;;;;;14.46;100.00;95785.84;5053789;28;20427;-77
2021/07/29 01:04:12;;;;;;;5.40;2.97;;;;;;;14.32;100.00;95780.91;5052326;28;20766;-77
2021/07/29 01:06:38;;;;;;;4.03;3.10;;;;;;;14.15;100.00;95784.81;5051144;28;20425;-77
2021/07/29 01:09:08;;;;;;;6.55;2.72;;;;;;;13.94;100.00;95790.72;5051190;28;20436;-77
2021/07/29 01:11:33;;;;;;;5.47;2.45;;;;;;;14.09;100.00;95785.25;5049689;28;20429;-77
2021/07/29 01:14:00;;;;;;;5.43;2.67;;;;;;;14.24;100.00;95786.72;5051629;28;20449;-77
2021/07/29 01:16:26;;;;;;;4.55;2.60;;;;;;;14.20;100.00;95785.25;5051469;28;20409;-77
2021/07/29 01:18:51;;;;;;;6.80;2.40;;;;;;;14.10;100.00;95774.75;5050508;28;20455;-77
2021/07/29 01:21:18;;;;;;;6.47;2.60;;;;;;;14.23;100.00;95779.81;5051807;28;20425;-77
2021/07/29 01:23:44;;;;;;;3.83;3.00;;;;;;;14.26;99.91;95785.63;5050652;28;20453;-77
2021/07/29 01:26:09;;;;;;;5.07;2.90;;;;;;;13.95;100.00;95784.56;5052272;28;20433;-77
2021/07/29 01:28:35;;;;;;;4.68;3.15;;;;;;;13.73;100.00;95787.94;5051878;28;20455;-77
2021/07/29 01:31:00;;;;;;;4.95;3.00;;;;;;;13.68;100.00;95786.63;5051809;28;20471;-77
2021/07/29 01:33:26;;;;;;;3.87;2.80;;;;;;;13.84;100.00;95778.50;5051201;28;20961;-78
2021/07/29 01:35:51;;;;;;;5.73;2.93;;;;;;;13.90;100.00;95778.03;5056454;28;20421;-79
2021/07/29 01:38:18;;;;;;;3.63;2.50;;;;;;;13.90;100.00;95778.84;5056836;28;20417;-79
2021/07/29 01:40:44;;;;;;;8.48;2.90;;;;;;;13.99;100.00;95775.56;5057674;28;20417;-79
2021/07/29 01:43:09;;;;;;;3.40;2.50;;;;;;;14.03;100.00;95765.75;5056972;28;20453;-79
2021/07/29 01:45:35;;;;;;;4.18;2.80;;;;;;;14.07;100.00;95766.34;5058321;28;20507;-79
2021/07/29 01:48:00;;;;;;;4.80;2.35;;;;;;;14.19;100.00;95768.00;5057553;28;20437;-79
2021/07/29 01:50:25;;;;;;;4.30;2.40;;;;;;;14.17;100.00;95768.13;5058411;28;20425;-78
2021/07/29 01:52:51;;;;;;;4.50;2.60;;;;;;;14.16;100.00;95771.66;5056008;28;20470;-79
2021/07/29 01:55:18;;;;;;;4.27;2.60;;;;;;;14.26;100.00;95774.38;5057398;28;20447;-79
2021/07/29 01:57:44;;;;;;;3.65;2.60;;;;;;;14.21;100.00;95776.53;5060722;28;20413;-80
2021/07/29 02:00:11;;;;;;;2.75;2.50;;;;;;;14.17;100.00;95775.09;5061375;28;21028;-79
2021/07/29 02:02:36;;;;;;;4.13;2.33;;;;;;;14.22;100.00;95765.97;5059288;28;20453;-78
2021/07/29 02:05:02;;;;;;;3.40;2.37;;;;;;;14.11;100.00;95771.19;5060736;28;20413;-79
2021/07/29 02:09:52;;;;;;;2.78;2.30;;;;;;;14.16;100.00;95769.03;5082854;22;20425;-75
2021/07/29 02:12:19;;;;;;;4.10;2.47;;;;;;;14.14;100.00;95770.13;5055627;28;20435;-75
2021/07/29 02:14:44;;;;;;;3.22;2.40;;;;;;;14.08;100.00;95776.63;5043127;28;20425;-75
2021/07/29 02:17:10;;;;;;;3.43;2.27;;;;;;;14.09;100.00;95773.09;5053135;28;20413;-74
2021/07/29 02:19:35;;;;;;;3.00;2.30;;;;;;;14.15;100.00;95767.41;5067737;28;20803;-74
2021/07/29 02:22:00;;;;;;;4.82;2.08;;;;;;;14.17;96.77;95772.50;5073276;28;20461;-75
2021/07/29 02:24:26;;;;;;;3.00;2.17;;;;;;;14.05;95.63;95769.03;5073409;28;20407;-75
2021/07/29 02:26:51;;;;;;;3.17;1.73;;;;;;;13.90;95.89;95770.22;5071787;28;20426;-75
2021/07/29 02:29:18;;;;;;;2.97;1.97;;;;;;;13.76;97.21;95772.09;5071969;28;20434;-74
2021/07/29 02:31:43;;;;;;;3.40;2.13;;;;;;;13.82;94.71;95770.78;5073311;28;20828;-75
2021/07/29 02:34:09;;;;;;;2.93;2.40;;;;;;;13.84;94.88;95774.13;5073288;28;20412;-75
2021/07/29 02:36:35;;;;;;;4.35;2.50;;;;;;;13.66;97.44;95770.31;5054055;28;20775;-75
2021/07/29 02:39:00;;;;;;;3.50;2.00;;;;;;;13.61;97.95;95777.59;5052993;28;20417;-74
2021/07/29 02:41:26;;;;;;;3.10;1.77;;;;;;;13.64;98.31;95773.00;5053044;28;20463;-74
2021/07/29 02:43:51;;;;;;;3.53;2.60;;;;;;;13.60;98.56;95771.56;5053191;28;20444;-75
2021/07/29 02:46:18;;;;;;;3.07;2.20;;;;;;;13.37;100.00;95775.91;5060420;28;20417;-75
2021/07/29 02:48:43;;;;;;;3.63;2.10;;;;;;;13.38;100.00;95771.50;5065536;28;20407;-75
2021/07/29 02:51:09;;;;;;;4.77;2.20;;;;;;;13.35;100.00;95774.34;5072881;28;20490;-75
2021/07/29 02:53:34;;;;;;;3.10;2.00;;;;;;;13.27;100.00;95778.34;5073386;28;20435;-75
2021/07/29 02:56:00;;;;;;;5.75;2.70;;;;;;;13.27;100.00;95773.16;5071398;28;20415;-74
2021/07/29 02:58:26;;;;;;;3.47;2.47;;;;;;;13.30;100.00;95767.69;5072891;28;20411;-75
2021/07/29 03:00:52;;;;;;;3.13;2.40;;;;;;;13.24;100.00;95781.19;5072768;28;20458;-74
2021/07/29 03:03:19;;;;;;;2.73;2.17;;;;;;;13.30;100.00;95785.91;5072760;28;20900;-74
2021/07/29 03:05:44;;;;;;;4.13;2.63;;;;;;;13.37;100.00;95775.06;5072360;28;20495;-74
2021/07/29 03:08:09;;;;;;;3.47;2.30;;;;;;;13.35;100.00;95782.13;5072185;28;20494;-75
2021/07/29 03:10:35;;;;;;;3.13;2.60;;;;;;;13.27;100.00;95786.16;5072591;28;20491;-74
2021/07/29 03:13:02;;;;;;;5.20;2.53;;;;;;;13.17;100.00;95782.53;5071316;28;20474;-75
2021/07/29 03:15:29;;;;;;;4.03;2.75;;;;;;;13.24;100.00;95782.97;5072212;28;20424;-75
2021/07/29 03:17:54;;;;;;;4.05;2.80;;;;;;;13.35;100.00;95776.94;5071143;28;20430;-75
2021/07/29 03:20:21;;;;;;;2.45;2.25;;;;;;;13.38;100.00;95779.31;5071206;28;20419;-75
2021/07/29 03:22:47;;;;;;;3.72;2.60;;;;;;;13.24;100.00;95783.78;5071088;28;20423;-74
2021/07/29 03:25:12;;;;;;;3.72;2.17;;;;;;;13.29;100.00;95783.44;5072366;28;20415;-75
2021/07/29 03:27:37;;;;;;;6.33;2.10;;;;;;;13.25;100.00;95782.00;5072120;28;20414;-75
2021/07/29 03:30:03;;;;;;;4.10;2.17;;;;;;;13.13;100.00;95782.88;5070893;28;20529;-74
2021/07/29 03:32:29;;;;;;;4.10;2.50;;;;;;;13.21;100.00;95783.13;5072281;28;20776;-75
2021/07/29 03:34:54;;;;;;;4.80;2.33;;;;;;;13.30;100.00;95780.72;5072197;28;20404;-75
2021/07/29 03:37:21;;;;;;;3.27;2.20;;;;;;;13.35;100.00;95780.41;5047898;28;20520;-75
2021/07/29 03:39:46;;;;;;;3.47;2.10;;;;;;;13.37;100.00;95780.28;5051991;28;21016;-75
2021/07/29 03:42:12;;;;;;;6.20;2.20;;;;;;;13.23;100.00;95789.91;5052388;28;20436;-77
2021/07/29 03:44:37;;;;;;;5.30;2.05;;;;;;;13.16;100.00;95787.84;5053017;28;20429;-81
2021/07/29 03:47:03;;;;;;;4.93;2.20;;;;;;;13.15;100.00;95783.56;5051396;28;20421;-78
2021/07/29 03:49:29;;;;;;;4.30;2.30;;;;;;;12.98;100.00;95803.84;5052768;28;20771;-78
2021/07/29 03:51:54;;;;;;;3.80;2.20;;;;;;;13.02;100.00;95791.44;5053051;28;20965;-76
2021/07/29 03:54:21;;;;;;;2.90;2.10;;;;;;;13.14;100.00;95797.53;5053304;28;20411;-77
2021/07/29 03:56:46;;;;;;;3.43;2.40;;;;;;;13.24;100.00;95795.97;5053188;28;20423;-76
2021/07/29 03:59:12;;;;;;;2.27;2.03;;;;;;;13.23;100.00;95802.91;5053682;28;20413;-76
2021/07/29 04:01:37;;;;;;;6.73;1.93;;;;;;;13.30;100.00;95801.53;5045274;28;20436;-77
2021/07/29 04:04:03;;;;;;;4.35;2.25;;;;;;;13.35;100.00;95800.34;5047525;28;20445;-76
2021/07/29 04:06:28;;;;;;;2.10;1.90;;;;;;;13.34;100.00;95796.91;5050660;28;20421;-76
2021/07/29 04:08:54;;;;;;;5.15;2.35;;;;;;;13.34;100.00;95809.09;5050973;28;20447;-76
2021/07/29 04:11:20;;;;;;;2.97;2.43;;;;;;;13.45;100.00;95799.56;5052195;28;20432;-77
2021/07/29 04:13:46;;;;;;;2.28;1.95;;;;;;;13.48;100.00;95798.53;5052232;28;20416;-76
2021/07/29 04:16:12;;;;;;;2.60;2.00;;;;;;;13.49;100.00;95805.38;5052158;28;20413;-77
2021/07/29 04:18:37;;;;;;;5.33;2.23;;;;;;;13.47;100.00;95808.09;5051911;28;20413;-77
2021/07/29 04:21:03;;;;;;;2.13;1.93;;;;;;;13.48;100.00;95809.75;5050143;28;20421;-76
2021/07/29 04:23:28;;;;;;;2.70;2.03;;;;;;;13.45;100.00;95803.94;5052136;28;20504;-76
2021/07/29 04:25:54;;;;;;;2.77;2.30;;;;;;;13.48;100.00;95808.94;5051974;28;20568;-77
2021/07/29 04:28:21;;;;;;;3.13;2.27;;;;;;;13.61;99.04;95801.03;5051721;28;20441;-77
2021/07/29 04:30:46;;;;;;;3.92;2.78;;;;;;;13.58;96.88;95799.50;5051788;28;20428;-77
2021/07/29 04:33:12;;;;;;;3.37;2.73;;;;;;;13.43;96.99;95798.03;5050553;28;20425;-77
2021/07/29 04:35:38;;;;;;;3.75;2.95;;;;;;;13.32;96.66;95799.66;5050406;28;20445;-76
2021/07/29 04:38:04;;;;;;;5.47;2.50;;;;;;;13.15;99.86;95802.59;5051779;28;20425;-77
2021/07/29 04:40:29;;;;;;;3.72;2.58;;;;;;;13.12;100.00;95807.19;5051606;28;20418;-77
2021/07/29 04:42:55;;;;;;;3.72;2.20;;;;;;;13.07;100.00;95810.13;5050239;28;20987;-76
2021/07/29 04:45:22;;;;;;;2.55;1.90;;;;;;;13.03;100.00;95809.53;5051282;28;20505;-76
2021/07/29 04:47:47;;;;;;;3.00;2.05;;;;;;;13.13;100.00;95807.09;5051428;28;20492;-77
2021/07/29 04:50:13;;;;;;;2.35;1.98;;;;;;;13.21;100.00;95809.97;5051366;28;20795;-76
2021/07/29 04:52:38;;;;;;;2.85;2.20;;;;;;;13.31;100.00;95810.16;5051924;28;20413;-77
2021/07/29 04:55:05;;;;;;;3.13;1.93;;;;;;;13.42;100.00;95815.44;5049898;28;20538;-75
2021/07/29 04:57:31;;;;;;;3.10;2.35;;;;;;;13.51;100.00;95811.31;5051254;28;20409;-77
2021/07/29 04:59:56;;;;;;;3.13;2.38;;;;;;;13.62;100.00;95815.72;5052053;28;20417;-77
2021/07/29 05:02:23;;;;;;;4.90;2.35;;;;;;;13.69;100.00;95812.56;5051631;28;20409;-76
2021/07/29 05:04:49;;;;;;;2.40;2.20;;;;;;;13.75;100.00;95816.44;5050813;28;20778;-77
2021/07/29 05:07:14;;;;;;;5.50;2.80;;;;;;;13.82;100.00;95815.06;5051722;28;20409;-76
2021/07/29 05:09:39;;;;;;;4.33;2.30;;;;;;;13.67;100.00;95811.81;5051656;28;20417;-77
2021/07/29 05:12:06;;;;;;;4.17;2.60;;;;;;;13.70;100.00;95810.78;5051889;28;20401;-77
2021/07/29 05:14:32;;;;;;;3.67;2.40;;;;;;;13.88;100.00;95808.56;5051419;28;20421;-77
2021/07/29 05:16:59;;;;;;;4.35;2.40;;;;;;;14.01;100.00;95811.88;5051024;28;20499;-77
2021/07/29 05:19:26;;;;;;;4.88;2.75;;;;;;;14.09;100.00;95804.34;5051405;28;20413;-77
2021/07/29 05:21:51;;;;;;;2.85;2.28;;;;;;;13.82;100.00;95815.06;5050089;28;20421;-76
2021/07/29 05:24:16;;;;;;;5.97;2.70;;;;;;;13.87;100.00;95809.50;5051817;28;20481;-76
2021/07/29 05:26:43;;;;;;;2.90;2.13;;;;;;;13.78;100.00;95811.84;5051339;28;20423;-77
2021/07/29 05:29:08;;;;;;;2.92;2.25;;;;;;;13.79;100.00;95810.06;5050401;28;20822;-77
2021/07/29 05:31:36;;;;;;;4.38;2.20;;;;;;;13.76;100.00;95805.94;5052293;28;20467;-77
2021/07/29 05:34:01;;;;;;;3.60;2.60;;;;;;;13.79;100.00;95808.31;5054133;28;20421;-76
2021/07/29 05:36:28;;;;;;;2.93;2.43;;;;;;;13.92;100.00;95807.38;5055071;28;20466;-77
2021/07/29 05:38:53;;;;;;;5.00;2.60;;;;;;;13.96;100.00;95814.03;5053874;28;20421;-77
2021/07/29 05:41:19;;;;;;;2.70;2.10;;;;;;;14.11;100.00;95802.44;5055278;28;20566;-77
2021/07/29 05:43:44;;;;;;;2.63;2.03;;;;;;;14.26;100.00;95805.66;5053919;28;20425;-77
2021/07/29 05:46:10;;;;;;;4.13;2.50;;;;;;;14.45;100.00;95799.84;5053546;28;20447;-77
2021/07/29 05:48:36;;;;;;;3.13;2.20;;;;;;;14.67;100.00;95804.25;5054888;28;20417;-76
2021/07/29 05:51:01;;;;;;;3.13;2.40;;;;;;;14.62;100.00;95806.38;5055062;28;20412;-76
2021/07/29 05:53:29;;;;;;;5.03;2.40;;;;;;;14.67;100.00;95799.03;5054745;28;20425;-76
2021/07/29 05:55:54;;;;;;;4.10;2.38;;;;;;;14.63;100.00;95801.03;5054341;28;20421;-77
2021/07/29 05:58:20;;;;;;;8.30;2.40;;;;;;;14.87;100.00;95795.69;5053016;28;20474;-76
2021/07/29 06:00:45;;;;;;;4.47;2.90;;;;;;;14.95;100.00;95798.50;5052916;28;20417;-76
2021/07/29 06:03:10;;;;;;;4.90;2.67;;;;;;;14.80;100.00;95807.56;5053171;28;20425;-76
2021/07/29 06:05:36;;;;;;;3.30;2.73;;;;;;;14.99;100.00;95802.53;5054555;28;20496;-76
2021/07/29 06:08:01;;;;;;;2.53;2.17;;;;;;;15.15;100.00;95806.50;5052804;28;20413;-76
2021/07/29 06:10:28;;;;;;;3.57;2.73;;;;;;;15.36;100.00;95811.78;5054295;28;20457;-76
2021/07/29 06:12:53;;;;;;;3.65;2.30;;;;;;;15.49;100.00;95805.41;5054068;28;20417;-76
2021/07/29 06:15:19;;;;;;;5.18;2.75;;;;;;;15.54;100.00;95804.25;5053936;28;20463;-77
2021/07/29 06:17:48;;;;;;;4.17;2.60;;;;;;;15.65;100.00;95806.81;5054004;28;20409;-76
2021/07/29 06:20:14;;;;;;;3.33;2.55;;;;;;;15.74;100.00;95806.06;5054530;28;20475;-76
2021/07/29 06:22:39;;;;;;;4.57;2.70;;;;;;;15.82;100.00;95815.88;5052928;28;20425;-76
2021/07/29 06:25:08;;;;;;;3.03;2.10;;;;;;;16.10;100.00;95806.56;5054313;28;20813;-76
2021/07/29 06:27:36;;;;;;;4.67;2.77;;;;;;;16.32;100.00;95811.63;5052805;28;20444;-76
2021/07/29 06:30:02;;;;;;;4.35;2.65;;;;;;;16.50;100.00;95813.59;5054099;28;20413;-77
2021/07/29 06:32:28;;;;;;;3.60;2.57;;;;;;;16.64;98.69;95810.63;5053759;28;20474;-77
2021/07/29 06:34:53;;;;;;;4.87;2.70;;;;;;;16.70;97.47;95810.94;5054143;28;20404;-76
2021/07/29 06:37:18;;;;;;;4.68;2.42;;;;;;;16.88;98.00;95818.19;5053470;28;20504;-76
2021/07/29 06:39:44;;;;;;;3.43;2.80;;;;;;;17.04;96.80;95813.25;5053761;28;20487;-76
2021/07/29 06:42:09;;;;;;;2.87;2.40;;;;;;;17.28;95.96;95807.66;5053106;28;20425;-76
2021/07/29 06:44:37;;;;;;;4.07;2.38;;;;;;;17.20;95.18;95819.75;5053508;28;20452;-76
2021/07/29 06:47:04;;;;;;;4.45;2.58;;;;;;;17.04;96.03;95815.88;5053377;28;20834;-77
2021/07/29 06:49:31;;;;;;;5.43;2.85;;;;;;;16.96;96.94;95812.28;5053627;28;20453;-76
2021/07/29 06:51:56;;;;;;;4.23;2.83;;;;;;;17.22;96.85;95816.06;5053716;28;20420;-76
2021/07/29 06:54:22;;;;;;;3.07;2.47;;;;;;;17.14;96.52;95821.97;5052416;28;20425;-76
2021/07/29 06:56:47;;;;;;;3.07;2.50;;;;;;;17.19;97.25;95818.94;5053347;28;20475;-76
2021/07/29 06:59:13;;;;;;;4.93;2.57;;;;;;;17.21;96.48;95817.03;5052275;28;20891;-77
2021/07/29 07:01:39;;;;;;;4.57;2.87;;;;;;;17.13;96.91;95824.69;5051917;28;20425;-76
2021/07/29 07:04:05;;;;;;;8.52;3.42;;;;;;;17.21;97.45;95830.09;5052388;28;20419;-77
2021/07/29 07:06:32;;;;;;;3.00;2.55;;;;;;;17.17;97.43;95829.56;5051808;28;20414;-77
2021/07/29 07:08:58;;;;;;;4.72;2.60;;;;;;;17.22;96.67;95826.53;5053571;28;20417;-76
2021/07/29 07:11:23;;;;;;;4.10;2.60;;;;;;;17.28;96.64;95827.75;5053507;28;20976;-77
2021/07/29 07:13:48;;;;;;;4.80;3.10;;;;;;;17.26;95.96;95827.06;5052296;28;20703;-76
2021/07/29 07:16:15;;;;;;;4.70;2.30;;;;;;;17.34;97.26;95833.28;5053049;28;20405;-76
2021/07/29 07:18:43;;;;;;;4.60;2.45;;;;;;;17.33;95.82;95825.56;5052093;28;20423;-76
2021/07/29 07:21:10;;;;;;;3.63;2.47;;;;;;;17.39;94.65;95827.63;5052200;28;20426;-76
2021/07/29 07:23:38;;;;;;;3.25;2.17;;;;;;;17.32;93.78;95829.16;5053149;28;20434;-77
2021/07/29 07:26:04;;;;;;;3.92;2.20;;;;;;;17.34;94.34;95829.84;5051593;28;20457;-76
2021/07/29 07:28:29;;;;;;;5.05;2.55;;;;;;;17.31;93.87;95835.34;5051638;28;20484;-77
2021/07/29 07:30:55;;;;;;;8.90;3.25;;;;;;;17.27;94.62;95845.25;5052316;28;20416;-76
2021/07/29 07:33:20;;;;;;;3.63;2.87;;;;;;;17.31;92.94;95840.56;5050988;28;20938;-76
2021/07/29 07:35:47;;;;;;;5.77;2.77;;;;;;;17.39;93.70;95840.72;5050775;28;20445;-76
2021/07/29 07:38:13;;;;;;;5.83;2.83;;;;;;;17.39;93.00;95843.34;5051036;28;20799;-76
2021/07/29 07:40:38;;;;;;;4.67;2.87;;;;;;;17.44;93.29;95846.38;5050653;28;20421;-76
2021/07/29 07:43:04;;;;;;;6.53;2.63;;;;;;;17.59;92.63;95846.81;5050937;28;20406;-76
2021/07/29 07:45:30;;;;;;;5.00;3.07;;;;;;;17.70;92.10;95843.22;5051637;28;20467;-76
2021/07/29 07:47:55;;;;;;;7.30;3.20;;;;;;;17.68;93.07;95843.34;5050654;28;20489;-76
2021/07/29 07:50:21;;;;;;;4.15;2.80;;;;;;;17.70;89.01;95853.72;5051911;28;20413;-76
2021/07/29 07:52:47;;;;;;;4.43;2.70;;;;;;;17.88;82.88;95838.97;5051859;28;20420;-77
2021/07/29 07:55:13;;;;;;;4.10;2.77;;;;;;;17.84;77.71;95843.66;5050799;28;20788;-76
2021/07/29 07:57:38;;;;;;;4.23;2.70;;;;;;;17.70;75.54;95849.28;5051438;28;20471;-75
2021/07/29 08:00:05;;;;;;;5.50;2.83;;;;;;;17.75;78.76;95838.38;5051110;28;20500;-76
2021/07/29 08:02:31;;;;;;;4.43;3.13;;;;;;;17.84;77.11;95835.81;5051198;28;20414;-76
2021/07/29 08:04:56;;;;;;;5.30;3.10;;;;;;;18.03;75.57;95842.00;5052354;28;20420;-76
2021/07/29 08:07:22;;;;;;;4.10;3.10;;;;;;;18.19;72.30;95838.78;5050947;28;20795;-76
2021/07/29 08:09:49;;;;;;;4.28;2.95;;;;;;;18.00;72.65;95835.22;5003930;23;20448;-76
2021/07/29 08:12:14;;;;;;;3.75;3.00;;;;;;;17.93;73.36;95833.31;4992729;28;20411;-76
2021/07/29 08:14:40;;;;;;;4.83;3.13;;;;;;;17.86;72.57;95833.84;4992474;28;20902;-76
2021/07/29 08:17:06;;;;;;;4.95;3.13;;;;;;;17.95;71.89;95829.59;4978519;28;20453;-78
2021/07/29 08:19:32;;;;;;;3.35;2.65;;;;;;;18.08;73.23;95831.91;4996140;28;20423;-79
2021/07/29 08:21:57;;;;;;;6.18;2.97;;;;;;;18.18;71.16;95829.28;4996679;28;20457;-78
2021/07/29 08:24:23;;;;;;;7.97;3.67;;;;;;;18.12;71.89;95831.47;4993623;28;20847;-78
2021/07/29 08:26:49;;;;;;;3.33;2.80;;;;;;;18.27;70.92;95833.66;4992515;28;20882;-77
2021/07/29 08:29:15;;;;;;;4.30;3.00;;;;;;;18.37;69.15;95826.59;4992369;28;20832;-78
2021/07/29 08:31:41;;;;;;;3.65;3.15;;;;;;;18.36;69.15;95827.56;4993090;28;20430;-77
2021/07/29 08:34:06;;;;;;;5.10;3.17;;;;;;;18.26;68.14;95832.00;4992745;28;20414;-78
2021/07/29 08:36:32;;;;;;;5.33;3.10;;;;;;;18.44;67.72;95822.44;4992373;28;20505;-77
2021/07/29 08:38:57;;;;;;;7.10;3.40;;;;;;;18.59;66.76;95814.94;4993053;28;20465;-77
2021/07/29 08:41:22;;;;;;;5.53;3.00;;;;;;;18.57;68.11;95824.72;4991099;28;21023;-77
2021/07/29 08:43:49;;;;;;;5.40;3.47;;;;;;;18.81;66.86;95825.06;4992649;28;20410;-77
2021/07/29 08:46:17;;;;;;;5.40;3.20;;;;;;;19.37;66.48;95823.22;4992503;28;20493;-78
2021/07/29 08:48:45;;;;;;;3.53;3.00;;;;;;;19.77;64.50;95821.97;4992486;28;20832;-77
2021/07/29 08:51:10;;;;;;;4.40;3.03;;;;;;;19.76;62.88;95836.94;4991681;28;20423;-78
2021/07/29 08:53:36;;;;;;;6.50;3.53;;;;;;;19.92;61.30;95836.22;4990690;28;20803;-77
2021/07/29 08:56:01;;;;;;;7.27;3.27;;;;;;;20.17;61.69;95833.75;4991947;28;20413;-78
2021/07/29 08:58:27;;;;;;;4.47;3.30;;;;;;;19.92;61.07;95832.78;4992363;28;20456;-78
2021/07/29 09:01:05;;;;;;;3.50;2.65;;;;;;;19.22;61.81;95835.22;4991992;28;20430;-78
2021/07/29 09:03:31;;;;;;;8.70;2.90;;;;;;;18.84;62.26;95834.47;4992721;28;20423;-78
2021/07/29 09:06:07;;;;;;;4.80;2.80;;;;;;;18.52;63.76;95848.75;4991732;28;20415;-77
2021/07/29 09:08:47;;;;;;;4.22;2.90;;;;;;;19.17;63.10;95833.03;4990779;28;20521;-78
2021/07/29 09:11:29;;;;;;;5.65;3.00;;;;;;;19.12;61.80;95847.56;4992321;28;20418;-78
2021/07/29 09:14:19;;;;;;;4.50;3.00;;;;;;;19.41;60.85;95835.06;4990962;28;20880;-78
2021/07/29 09:16:56;;;;;;;5.63;3.40;;;;;;;19.23;61.00;95850.81;4989290;28;20669;-78
2021/07/29 09:19:30;;;;;;;4.13;3.05;;;;;;;19.07;60.53;95843.59;4991896;28;20433;-77
2021/07/29 09:22:05;;;;;;;4.72;3.10;;;;;;;18.58;62.65;95842.13;4992756;28;20462;-78
2021/07/29 09:24:30;;;;;;;7.47;3.00;;;;;;;18.66;61.78;95838.78;4991985;28;20434;-77
2021/07/29 09:26:57;;;;;;;9.07;3.57;;;;;;;18.75;61.30;95838.75;4993855;28;20414;-78
2021/07/29 09:29:23;;;;;;;12.25;3.35;;;;;;;18.76;62.72;95847.47;4991226;28;20439;-78
2021/07/29 09:32:02;;;;;;;4.13;3.35;;;;;;;18.74;60.30;95847.63;4992296;28;20457;-77
2021/07/29 09:34:40;;;;;;;3.83;3.00;;;;;;;18.92;59.67;95842.44;4991891;28;20415;-78
2021/07/29 09:37:06;;;;;;;4.47;2.90;;;;;;;19.02;60.33;95844.97;4990398;28;20426;-78
2021/07/29 09:39:32;;;;;;;3.35;2.85;;;;;;;19.43;58.90;95853.31;4991933;28;20419;-78
2021/07/29 09:42:15;;;;;;;5.53;3.00;;;;;;;19.93;58.34;95840.50;4991458;28;20433;-78
2021/07/29 09:44:43;;;;;;;5.10;3.27;;;;;;;20.42;57.27;95843.47;4990602;28;20865;-78
2021/07/29 09:47:10;;;;;;;6.18;3.45;;;;;;;20.93;56.01;95838.34;4991727;28;20410;-78
2021/07/29 09:49:36;;;;;;;4.40;3.13;;;;;;;20.93;53.74;95839.16;4991811;28;20926;-78
2021/07/29 09:52:03;;;;;;;4.80;3.05;;;;;;;20.68;55.63;95834.75;4991820;28;20426;-78
2021/07/29 09:54:29;;;;;;;4.72;3.22;;;;;;;19.81;56.69;95831.22;4991848;28;20423;-78
2021/07/29 09:56:55;;;;;;;4.57;3.30;;;;;;;19.82;57.70;95814.47;4991854;28;20919;-78
2021/07/29 09:59:20;;;;;;;6.50;3.80;;;;;;;19.42;58.31;95822.78;4991918;28;20410;-78
2021/07/29 10:01:47;;;;;;;3.50;3.20;;;;;;;19.52;58.62;95826.97;4991724;28;20433;-78
2021/07/29 10:04:15;;;;;;;4.63;3.17;;;;;;;19.84;58.22;95815.16;4992077;28;20414;-78
2021/07/29 10:06:42;;;;;;;5.47;3.17;;;;;;;19.97;56.83;95812.09;4991385;28;20469;-77
2021/07/29 10:09:12;;;;;;;5.95;3.45;;;;;;;20.42;58.07;95816.34;4990463;28;20426;-77
2021/07/29 10:11:41;;;;;;;5.18;3.60;;;;;;;20.41;53.97;95807.63;4990556;28;20414;-78
2021/07/29 10:14:09;;;;;;;5.28;3.78;;;;;;;20.41;54.31;95801.53;4992020;28;20958;-77
2021/07/29 10:16:46;;;;;;;6.80;3.92;;;;;;;20.25;56.27;95807.53;4990340;28;20784;-78
2021/07/29 10:19:14;;;;;;;5.15;3.63;;;;;;;20.13;56.00;95804.31;4994801;28;20931;-78
2021/07/29 10:21:41;;;;;;;6.13;3.92;;;;;;;20.12;56.86;95807.13;4995652;28;20433;-78
2021/07/29 10:24:07;;;;;;;9.13;3.40;;;;;;;20.56;57.23;95804.44;4995501;28;20931;-78
2021/07/29 10:26:34;;;;;;;5.40;3.43;;;;;;;20.63;55.92;95808.94;4994273;28;20426;-78
2021/07/29 10:29:24;;;;;;;4.50;3.67;;;;;;;20.84;55.32;95803.28;4994122;28;20924;-78
2021/07/29 10:31:51;;;;;;;4.00;3.50;;;;;;;20.71;53.62;95798.44;4995581;28;20423;-78
2021/07/29 10:34:29;;;;;;;3.63;3.33;;;;;;;21.20;54.30;95797.75;4995181;28;20418;-78
2021/07/29 10:36:55;;;;;;;4.97;3.35;;;;;;;20.95;53.88;95797.72;4995362;28;20457;-78
2021/07/29 10:39:21;;;;;;;4.72;3.42;;;;;;;21.05;53.28;95792.28;4994457;28;20860;-78
2021/07/29 10:41:55;;;;;;;4.87;3.60;;;;;;;20.89;55.38;95800.16;4995487;28;20472;-77
2021/07/29 10:44:43;;;;;;;4.45;3.42;;;;;;;20.42;53.28;95809.28;4994374;28;20472;-78
2021/07/29 10:47:10;;;;;;;6.88;3.40;;;;;;;20.74;52.52;95806.00;4994544;28;20423;-77
2021/07/29 10:50:15;;;;;;;9.10;3.50;;;;;;;20.92;52.67;95794.56;4994895;28;20422;-78
2021/07/29 10:52:47;;;;;;;5.20;3.37;;;;;;;21.45;53.26;95802.13;4995708;28;20796;-78
2021/07/29 10:55:12;;;;;;;6.70;3.80;;;;;;;21.67;52.24;95792.75;4994973;28;20496;-78
2021/07/29 10:57:39;;;;;;;3.85;3.03;;;;;;;21.87;52.01;95793.25;4995702;28;20912;-78
2021/07/29 11:00:06;;;;;;;5.05;3.42;;;;;;;21.99;50.41;95789.31;4995186;28;20486;-78
2021/07/29 11:02:34;;;;;;;4.30;3.15;;;;;;;21.98;50.43;95787.63;4995264;28;20434;-77
2021/07/29 11:05:01;;;;;;;6.88;3.30;;;;;;;22.33;50.18;95785.66;4994104;28;20485;-78
2021/07/29 11:07:26;;;;;;;6.40;3.17;;;;;;;22.31;49.46;95781.53;4993814;28;20454;-78
2021/07/29 11:10:03;;;;;;;6.72;3.45;;;;;;;22.48;50.15;95783.13;4993893;28;20430;-78
2021/07/29 11:12:30;;;;;;;5.55;3.30;;;;;;;22.20;49.95;95785.34;4995316;28;20418;-79
2021/07/29 11:14:57;;;;;;;4.50;3.42;;;;;;;22.10;51.48;95777.59;4995543;28;20414;-78
2021/07/29 11:17:23;;;;;;;5.40;2.92;;;;;;;21.67;51.32;95781.41;4995139;28;20974;-78
2021/07/29 11:19:49;;;;;;;3.93;3.23;;;;;;;21.28;52.66;95779.34;4995113;28;20510;-78
2021/07/29 11:22:15;;;;;;;4.20;3.42;;;;;;;20.94;52.58;95782.88;4994130;28;20423;-78
2021/07/29 11:24:40;;;;;;;5.30;3.08;;;;;;;21.62;52.84;95775.81;4995227;28;20450;-78
2021/07/29 11:27:12;;;;;;;5.30;3.00;;;;;;;21.81;52.56;95780.75;4993771;28;20511;-79
2021/07/29 11:29:51;;;;;;;4.55;3.25;;;;;;;21.21;54.03;95771.28;4994814;28;20449;-78
2021/07/29 11:32:17;;;;;;;5.28;3.20;;;;;;;21.19;53.55;95773.25;4995049;28;20978;-78